Time;durP1;ratioP1;P1;durP2;ratioP2;P2;SDS_P1;SDS_P2;PMS_P1;PMS_P2;Temp;Humidity;BMP_temperature;BMP_pressure;BME280_temperature;BME280_humidity;BME280_pressure;Samples;Min_cycle;Max_cycle;Signal;HPM_P1;HPM_P2
2022/11/09 00:00:43;;;;;;;10.65;1.17;;;13.40;99.90;;;;;;4968146;28;20054;-39
2022/11/09 00:03:10;;;;;;;7.50;1.17;;;13.40;99.90;;;;;;4971694;28;20484;-37
2022/11/09 00:05:36;;;;;;;3.40;1.20;;;13.30;99.90;;;;;;4977411;28;20038;-37
2022/11/09 00:08:05;;;;;;;5.35;0.82;;;13.30;99.90;;;;;;4973969;28;20046;-38
2022/11/09 00:10:31;;;;;;;4.60;1.17;;;13.30;99.90;;;;;;4971938;28;20041;-38
2022/11/09 00:12:57;;;;;;;2.78;0.70;;;13.30;99.90;;;;;;4970468;28;20081;-40
2022/11/09 00:15:23;;;;;;;2.33;0.80;;;13.20;99.90;;;;;;4972957;28;20038;-42
2022/11/09 00:17:48;;;;;;;3.30;0.77;;;13.30;99.90;;;;;;4971395;28;20035;-44
2022/11/09 00:20:14;;;;;;;4.88;1.15;;;13.30;99.90;;;;;;4973245;28;20038;-38
2022/11/09 00:22:40;;;;;;;5.53;1.00;;;13.30;99.90;;;;;;4964964;28;20066;-37
2022/11/09 00:25:06;;;;;;;5.00;0.77;;;13.30;99.90;;;;;;4966160;28;20034;-37
2022/11/09 00:27:32;;;;;;;4.78;1.00;;;13.30;99.90;;;;;;4966410;28;20049;-38
2022/11/09 00:29:57;;;;;;;5.35;1.05;;;13.30;99.90;;;;;;4969469;28;20043;-37
2022/11/09 00:32:23;;;;;;;4.50;0.90;;;13.30;99.90;;;;;;4969803;28;20045;-40
2022/11/09 00:34:48;;;;;;;3.47;0.65;;;13.30;99.90;;;;;;4966268;28;20027;-38
2022/11/09 00:37:14;;;;;;;3.15;0.68;;;13.30;99.90;;;;;;4972667;28;20568;-38
2022/11/09 00:39:40;;;;;;;5.03;0.98;;;13.30;99.90;;;;;;4964944;28;20034;-38
2022/11/09 00:42:06;;;;;;;7.68;1.08;;;13.30;99.90;;;;;;4968719;28;20043;-39
2022/11/09 00:44:32;;;;;;;4.35;1.00;;;13.30;99.90;;;;;;4967053;28;20070;-38
2022/11/09 00:46:57;;;;;;;3.15;0.60;;;13.20;99.90;;;;;;4971684;28;20631;-40
2022/11/09 00:49:23;;;;;;;4.97;0.73;;;13.20;99.90;;;;;;4967971;28;20035;-38
2022/11/09 00:51:49;;;;;;;4.35;0.95;;;13.20;99.90;;;;;;4971840;28;20050;-38
2022/11/09 00:54:16;;;;;;;9.10;1.05;;;13.20;99.90;;;;;;4967721;28;20061;-37
2022/11/09 00:56:42;;;;;;;4.60;0.80;;;13.20;99.90;;;;;;4967474;28;20042;-38
2022/11/09 00:59:09;;;;;;;4.70;0.82;;;13.20;99.90;;;;;;4970653;28;20098;-38
2022/11/09 01:01:34;;;;;;;5.45;0.90;;;13.20;99.90;;;;;;4972018;28;20049;-38
2022/11/09 01:04:00;;;;;;;4.07;0.80;;;13.20;99.90;;;;;;4970805;28;20046;-38
2022/11/09 01:06:26;;;;;;;8.40;1.23;;;13.20;99.90;;;;;;4970518;28;20394;-40
2022/11/09 01:08:52;;;;;;;4.55;0.80;;;13.20;99.90;;;;;;4972068;28;20760;-42
2022/11/09 01:11:19;;;;;;;6.10;0.90;;;13.20;99.90;;;;;;4968906;28;20042;-38
2022/11/09 01:13:45;;;;;;;3.35;0.80;;;13.20;99.90;;;;;;4961988;28;20097;-38
2022/11/09 01:16:14;;;;;;;9.38;1.10;;;13.20;99.90;;;;;;4969618;28;20037;-38
2022/11/09 01:18:40;;;;;;;5.32;0.98;;;13.20;99.90;;;;;;4969024;28;20034;-40
2022/11/09 01:21:09;;;;;;;4.20;1.00;;;13.20;99.90;;;;;;4969360;28;20399;-38
2022/11/09 01:23:35;;;;;;;2.80;0.80;;;13.20;99.90;;;;;;4963346;28;21244;-38
2022/11/09 01:26:04;;;;;;;4.45;0.85;;;13.10;99.90;;;;;;4970342;28;20066;-38
2022/11/09 01:28:30;;;;;;;3.72;0.90;;;12.90;99.90;;;;;;4949293;28;20047;-40
2022/11/09 01:31:03;;;;;;;3.13;1.00;;;12.90;99.90;;;;;;4969205;28;20385;-40
2022/11/09 01:33:30;;;;;;;6.85;1.10;;;12.80;99.90;;;;;;4968954;28;20043;-38
2022/11/09 01:36:21;;;;;;;3.85;0.95;;;12.60;99.90;;;;;;4970015;28;20050;-38
2022/11/09 01:38:47;;;;;;;4.53;1.08;;;12.50;99.90;;;;;;4964945;28;20062;-39
2022/11/09 01:41:26;;;;;;;3.38;0.80;;;12.50;99.90;;;;;;4971732;28;20481;-38
2022/11/09 01:44:25;;;;;;;2.25;0.68;;;12.50;99.90;;;;;;4964885;28;20070;-41
2022/11/09 01:46:55;;;;;;;7.15;0.98;;;12.40;99.90;;;;;;4948699;28;20054;-37
2022/11/09 01:49:47;;;;;;;5.35;0.82;;;12.40;99.90;;;;;;4970281;28;20074;-38
2022/11/09 01:52:34;;;;;;;5.82;1.05;;;12.50;99.90;;;;;;4969938;28;20462;-38
2022/11/09 01:55:05;;;;;;;7.80;1.23;;;12.50;99.90;;;;;;4967664;28;20488;-38
2022/11/09 01:57:35;;;;;;;6.32;1.10;;;12.60;99.90;;;;;;4971093;28;20053;-38
2022/11/09 02:00:11;;;;;;;4.47;1.05;;;12.60;99.90;;;;;;4966049;28;20529;-38
2022/11/09 02:02:39;;;;;;;4.13;0.70;;;12.60;99.90;;;;;;4970857;28;20035;-38
2022/11/09 02:05:13;;;;;;;3.28;0.68;;;12.60;99.90;;;;;;4971156;28;20034;-37
2022/11/09 02:07:40;;;;;;;3.95;0.85;;;12.50;99.90;;;;;;4968446;28;20141;-39
2022/11/09 02:10:14;;;;;;;4.68;0.88;;;12.40;99.90;;;;;;4969325;28;20125;-38
2022/11/09 02:12:40;;;;;;;4.22;0.90;;;12.40;99.90;;;;;;4959612;28;20034;-40
2022/11/09 02:15:09;;;;;;;6.53;1.00;;;12.40;99.90;;;;;;4970047;28;20046;-38
2022/11/09 02:17:35;;;;;;;5.38;1.02;;;12.40;99.90;;;;;;4971506;28;20053;-38
2022/11/09 02:20:05;;;;;;;5.47;1.05;;;12.40;99.90;;;;;;4971051;28;20539;-38
2022/11/09 02:22:33;;;;;;;6.07;1.00;;;12.40;99.90;;;;;;4968319;28;20165;-39
2022/11/09 02:24:59;;;;;;;2.05;0.68;;;12.30;99.90;;;;;;4968576;28;20463;-37
2022/11/09 02:27:24;;;;;;;6.70;0.63;;;12.30;99.90;;;;;;4969002;28;20130;-38
2022/11/09 02:29:51;;;;;;;5.85;0.90;;;12.30;99.90;;;;;;4964374;28;20062;-37
2022/11/09 02:32:23;;;;;;;6.95;0.93;;;12.30;99.90;;;;;;4967300;28;20031;-38
2022/11/09 02:34:49;;;;;;;9.40;1.27;;;12.30;99.90;;;;;;4963834;28;20463;-41
2022/11/09 02:37:39;;;;;;;4.07;0.80;;;12.20;99.90;;;;;;4968243;28;20071;-38
2022/11/09 02:40:12;;;;;;;4.78;1.05;;;12.20;99.90;;;;;;4963752;28;20065;-37
2022/11/09 02:42:38;;;;;;;4.38;1.23;;;12.20;99.90;;;;;;4967415;28;20065;-37
2022/11/09 02:45:04;;;;;;;2.40;0.70;;;12.20;99.90;;;;;;4974302;28;20564;-38
2022/11/09 02:47:30;;;;;;;3.08;0.60;;;12.30;99.90;;;;;;4970224;28;20050;-38
2022/11/09 02:49:58;;;;;;;4.72;0.82;;;12.30;99.90;;;;;;4965817;28;20507;-38
2022/11/09 02:52:24;;;;;;;3.85;0.98;;;12.30;99.90;;;;;;4968842;28;20030;-37
2022/11/09 02:54:50;;;;;;;6.20;1.00;;;12.30;99.90;;;;;;4964631;28;20051;-37
2022/11/09 02:57:16;;;;;;;2.97;0.70;;;12.30;99.90;;;;;;4971772;28;20042;-37
2022/11/09 02:59:41;;;;;;;6.10;0.70;;;12.30;99.90;;;;;;4959862;28;20047;-40
2022/11/09 03:02:07;;;;;;;7.13;0.90;;;12.30;99.90;;;;;;4969572;28;20043;-38
2022/11/09 03:04:32;;;;;;;4.07;1.20;;;12.30;99.90;;;;;;4969027;28;20031;-38
2022/11/09 03:06:58;;;;;;;6.53;1.10;;;12.20;99.90;;;;;;4970947;28;20249;-37
2022/11/09 03:09:24;;;;;;;4.30;0.80;;;12.20;99.90;;;;;;4959695;28;20130;-38
2022/11/09 03:11:49;;;;;;;5.47;0.70;;;12.20;99.90;;;;;;4971697;28;20042;-38
2022/11/09 03:14:16;;;;;;;4.13;0.73;;;12.10;99.90;;;;;;4969316;28;20042;-38
2022/11/09 03:16:42;;;;;;;3.58;0.70;;;12.10;99.90;;;;;;4970480;28;20062;-40
2022/11/09 03:19:07;;;;;;;5.72;1.13;;;12.00;99.90;;;;;;4967283;28;20043;-38
2022/11/09 03:21:33;;;;;;;3.22;0.70;;;11.90;99.90;;;;;;4967077;28;20400;-38
2022/11/09 03:23:59;;;;;;;3.35;0.70;;;11.80;99.90;;;;;;4965519;28;20034;-38
2022/11/09 03:26:24;;;;;;;4.03;0.80;;;11.70;99.90;;;;;;4967586;28;20118;-38
2022/11/09 03:28:50;;;;;;;9.82;1.58;;;11.70;99.90;;;;;;4972946;28;20492;-39
2022/11/09 03:31:16;;;;;;;7.10;1.10;;;11.60;99.90;;;;;;4969200;28;20137;-37
2022/11/09 03:33:41;;;;;;;5.70;0.85;;;11.60;99.90;;;;;;4967405;28;20826;-39
2022/11/09 03:36:07;;;;;;;3.47;0.80;;;11.50;99.90;;;;;;4969600;28;20404;-39
2022/11/09 03:38:34;;;;;;;4.68;0.98;;;11.50;99.90;;;;;;4967212;28;20054;-39
2022/11/09 03:41:01;;;;;;;9.32;1.10;;;11.40;99.90;;;;;;4967686;28;20049;-38
2022/11/09 03:43:30;;;;;;;4.82;1.10;;;11.40;99.90;;;;;;4969485;28;20035;-39
2022/11/09 03:45:56;;;;;;;5.53;1.05;;;11.40;99.90;;;;;;4951720;28;20051;-38
2022/11/09 03:48:22;;;;;;;5.03;0.98;;;11.40;99.90;;;;;;4963418;28;21247;-39
2022/11/09 03:50:47;;;;;;;5.40;0.88;;;11.40;99.90;;;;;;4968051;28;20042;-37
2022/11/09 03:53:13;;;;;;;5.32;1.00;;;11.40;99.90;;;;;;4967454;28;20109;-38
2022/11/09 03:55:39;;;;;;;5.38;0.85;;;11.40;99.90;;;;;;4961020;28;20054;-38
2022/11/09 03:58:06;;;;;;;5.05;0.82;;;11.40;99.90;;;;;;4967818;28;20046;-39
2022/11/09 04:00:34;;;;;;;7.13;1.13;;;11.40;99.90;;;;;;4967899;28;20524;-39
2022/11/09 04:03:00;;;;;;;5.07;1.10;;;11.40;99.90;;;;;;4968406;28;20643;-39
2022/11/09 04:05:26;;;;;;;4.72;1.00;;;11.40;99.90;;;;;;4965552;28;20043;-39
2022/11/09 04:07:54;;;;;;;7.70;0.98;;;11.40;99.90;;;;;;4971695;28;20038;-39
2022/11/09 04:10:21;;;;;;;3.80;0.85;;;11.40;99.90;;;;;;4965556;28;20166;-39
2022/11/09 04:12:47;;;;;;;6.18;1.50;;;11.40;99.90;;;;;;4964601;28;20516;-40
2022/11/09 04:15:13;;;;;;;6.10;1.00;;;11.40;99.90;;;;;;4968563;28;20045;-39
2022/11/09 04:17:39;;;;;;;5.88;1.02;;;11.40;99.90;;;;;;4964393;28;20031;-39
2022/11/09 04:20:06;;;;;;;7.70;1.35;;;11.40;99.90;;;;;;4961670;28;20046;-38
2022/11/09 04:22:32;;;;;;;2.35;1.17;;;11.40;99.90;;;;;;4966314;28;20050;-38
2022/11/09 04:24:58;;;;;;;5.38;1.10;;;11.40;99.90;;;;;;4964817;28;20038;-39
2022/11/09 04:27:24;;;;;;;7.47;1.40;;;11.40;99.90;;;;;;4948379;28;20416;-39
2022/11/09 04:29:49;;;;;;;2.83;0.70;;;11.40;99.90;;;;;;4964693;28;20412;-38
2022/11/09 04:32:15;;;;;;;7.80;1.48;;;11.40;99.90;;;;;;4967475;28;20081;-39
2022/11/09 04:34:41;;;;;;;5.65;1.17;;;11.40;99.90;;;;;;4967920;28;20070;-38
2022/11/09 04:37:07;;;;;;;6.55;1.00;;;11.40;99.90;;;;;;4971831;28;20049;-38
2022/11/09 04:39:33;;;;;;;6.15;0.90;;;11.40;99.90;;;;;;4967619;28;20074;-39
2022/11/09 04:41:59;;;;;;;3.90;0.80;;;11.40;99.90;;;;;;4963173;28;20133;-40
2022/11/09 04:44:24;;;;;;;4.28;0.82;;;11.40;99.90;;;;;;4952844;28;20039;-46
2022/11/09 04:46:50;;;;;;;7.80;1.17;;;11.30;99.90;;;;;;4969855;28;20038;-39
2022/11/09 04:49:15;;;;;;;4.60;0.80;;;11.40;99.90;;;;;;4969854;28;20107;-37
2022/11/09 04:51:41;;;;;;;5.63;0.80;;;11.40;99.90;;;;;;4970643;28;20035;-38
2022/11/09 04:54:07;;;;;;;3.55;0.90;;;11.50;99.90;;;;;;4969394;28;20045;-40
2022/11/09 04:56:32;;;;;;;6.38;0.98;;;11.50;99.90;;;;;;4970292;28;20400;-38
2022/11/09 04:58:58;;;;;;;4.40;0.82;;;11.50;99.90;;;;;;4970681;28;20041;-38
2022/11/09 05:01:24;;;;;;;7.82;0.90;;;11.50;99.90;;;;;;4970332;28;20058;-38
2022/11/09 05:03:49;;;;;;;5.28;0.70;;;11.60;99.90;;;;;;4965739;28;20082;-38
2022/11/09 05:06:30;;;;;;;6.35;1.95;;;11.60;99.90;;;;;;4970021;28;20161;-39
2022/11/09 05:08:58;;;;;;;3.05;0.68;;;11.60;99.90;;;;;;4971244;28;20562;-39
2022/11/09 05:11:23;;;;;;;3.15;0.70;;;11.60;99.90;;;;;;4969817;28;20038;-39
2022/11/09 05:13:52;;;;;;;5.40;1.05;;;11.60;99.90;;;;;;4970134;28;20054;-39
2022/11/09 05:16:19;;;;;;;5.03;1.10;;;11.70;99.90;;;;;;4968784;28;20087;-39
2022/11/09 05:18:45;;;;;;;5.40;0.93;;;11.70;99.90;;;;;;4968575;28;20045;-41
2022/11/09 05:21:11;;;;;;;8.05;0.90;;;11.60;99.90;;;;;;4969953;28;20045;-39
2022/11/09 05:26:21;;;;;;;4.90;1.05;;;11.60;99.90;;;;;;4967284;28;20046;-38
2022/11/09 05:28:47;;;;;;;5.55;1.17;;;11.60;99.90;;;;;;4966919;28;20054;-38
2022/11/09 05:31:12;;;;;;;5.88;0.90;;;11.60;99.90;;;;;;4970854;28;20042;-37
2022/11/09 05:33:38;;;;;;;6.43;0.73;;;11.50;99.90;;;;;;4969930;28;20105;-38
2022/11/09 05:36:04;;;;;;;5.85;0.80;;;11.50;99.90;;;;;;4971463;28;20042;-39
2022/11/09 05:38:30;;;;;;;5.70;0.90;;;11.50;99.90;;;;;;4969858;28;20050;-39
2022/11/09 05:40:56;;;;;;;2.75;0.60;;;11.50;99.90;;;;;;4967711;28;20038;-39
2022/11/09 05:43:22;;;;;;;8.88;0.73;;;11.50;99.90;;;;;;4969980;28;20054;-38
2022/11/09 05:45:47;;;;;;;7.20;0.80;;;11.50;99.90;;;;;;4970235;28;20058;-41
2022/11/09 05:48:15;;;;;;;4.32;0.82;;;11.40;99.90;;;;;;4962967;28;20416;-38
2022/11/09 05:50:41;;;;;;;6.95;0.70;;;11.40;99.90;;;;;;4969180;28;20043;-39
2022/11/09 05:53:07;;;;;;;5.70;1.35;;;11.50;99.90;;;;;;4966691;28;20491;-39
2022/11/09 05:55:33;;;;;;;6.75;0.63;;;11.40;99.90;;;;;;4969216;28;20139;-40
2022/11/09 05:57:59;;;;;;;6.55;1.13;;;11.40;99.90;;;;;;4972154;28;20092;-38
2022/11/09 06:00:24;;;;;;;3.88;0.68;;;11.40;99.90;;;;;;4967180;28;20038;-40
2022/11/09 06:02:50;;;;;;;3.28;0.80;;;11.40;99.90;;;;;;4974412;28;20105;-39
2022/11/09 06:05:16;;;;;;;5.40;0.90;;;11.40;99.90;;;;;;4967297;28;20050;-37
2022/11/09 06:07:42;;;;;;;11.52;1.45;;;11.40;99.90;;;;;;4964311;28;20057;-38
2022/11/09 06:10:08;;;;;;;6.68;1.98;;;11.40;99.90;;;;;;4968897;28;20133;-41
2022/11/09 06:12:34;;;;;;;8.07;1.10;;;11.50;99.90;;;;;;4965373;28;20109;-39
2022/11/09 06:15:00;;;;;;;6.22;1.00;;;11.50;99.90;;;;;;4970579;28;20154;-40
2022/11/09 06:17:25;;;;;;;6.75;0.82;;;11.50;99.90;;;;;;4965916;28;20038;-41
2022/11/09 06:19:51;;;;;;;3.95;0.80;;;11.50;99.90;;;;;;4964177;28;20408;-39
2022/11/09 06:22:17;;;;;;;4.95;0.70;;;11.60;99.90;;;;;;4963475;28;20059;-38
2022/11/09 06:24:43;;;;;;;9.30;1.30;;;11.50;99.90;;;;;;4967698;28;20488;-36
2022/11/09 06:27:08;;;;;;;3.83;0.55;;;11.50;99.90;;;;;;4960721;28;20512;-38
2022/11/09 06:29:34;;;;;;;4.22;0.70;;;11.50;99.90;;;;;;4961815;28;20534;-38
2022/11/09 06:32:00;;;;;;;5.53;0.80;;;11.50;99.90;;;;;;4959544;28;20051;-37
2022/11/09 06:34:26;;;;;;;5.97;1.00;;;11.50;99.90;;;;;;4965900;28;20056;-37
2022/11/09 06:36:51;;;;;;;7.55;0.77;;;11.50;99.90;;;;;;4965496;28;20503;-37
2022/11/09 06:39:17;;;;;;;6.53;0.88;;;11.40;99.90;;;;;;4961599;28;20039;-42
2022/11/09 06:41:43;;;;;;;7.10;0.80;;;11.40;99.90;;;;;;4964815;28;20034;-38
2022/11/09 06:44:08;;;;;;;8.30;0.85;;;11.40;99.90;;;;;;4964020;28;20546;-38
2022/11/09 06:46:34;;;;;;;4.32;0.80;;;11.30;99.90;;;;;;4966954;28;20516;-38
2022/11/09 06:49:00;;;;;;;4.20;0.70;;;11.30;99.90;;;;;;4966612;28;21495;-38
2022/11/09 06:51:25;;;;;;;8.98;0.93;;;11.30;99.90;;;;;;4967574;28;20457;-38
2022/11/09 06:53:51;;;;;;;11.35;1.40;;;11.30;99.90;;;;;;4966645;28;20037;-38
2022/11/09 06:56:17;;;;;;;4.00;0.70;;;11.30;99.90;;;;;;4951400;28;20051;-39
2022/11/09 06:58:43;;;;;;;8.65;0.68;;;11.40;99.90;;;;;;4967766;28;20078;-38
2022/11/09 07:01:20;;;;;;;6.88;0.95;;;11.40;99.90;;;;;;4950005;28;20388;-37
2022/11/09 07:03:46;;;;;;;4.43;0.85;;;11.40;99.90;;;;;;4962799;28;20057;-39
2022/11/09 07:06:12;;;;;;;4.80;0.82;;;11.40;99.90;;;;;;4961096;28;20485;-38
2022/11/09 07:08:38;;;;;;;6.78;1.10;;;11.30;99.90;;;;;;4959811;28;20129;-42
2022/11/09 07:11:12;;;;;;;7.28;0.68;;;11.30;99.90;;;;;;4959968;28;20058;-38
2022/11/09 07:13:38;;;;;;;8.20;0.68;;;11.30;99.90;;;;;;4962880;28;20035;-39
2022/11/09 07:16:05;;;;;;;6.45;1.55;;;11.30;99.90;;;;;;4968663;28;20089;-38
2022/11/09 07:18:32;;;;;;;5.07;0.90;;;11.30;99.90;;;;;;4965368;28;20067;-39
2022/11/09 07:20:57;;;;;;;5.18;0.98;;;11.30;99.90;;;;;;4969347;28;20043;-39
2022/11/09 07:23:23;;;;;;;8.00;1.13;;;11.30;99.90;;;;;;4970973;28;20043;-40
2022/11/09 07:25:49;;;;;;;5.60;0.82;;;11.30;99.90;;;;;;4969048;28;20077;-38
2022/11/09 07:28:15;;;;;;;8.68;1.20;;;11.30;99.90;;;;;;4962211;28;20050;-37
2022/11/09 07:30:41;;;;;;;5.43;0.95;;;11.40;99.90;;;;;;4955372;28;20039;-38
2022/11/09 07:33:16;;;;;;;4.18;0.88;;;11.30;99.90;;;;;;4970521;28;20038;-47
2022/11/09 07:35:42;;;;;;;8.00;1.23;;;11.40;99.90;;;;;;4971489;28;20488;-37
2022/11/09 07:38:08;;;;;;;12.25;1.95;;;11.40;99.90;;;;;;4970059;28;20057;-38
2022/11/09 07:40:34;;;;;;;6.00;1.30;;;11.50;99.90;;;;;;4957538;28;20043;-39
2022/11/09 07:43:01;;;;;;;7.15;1.10;;;11.50;99.90;;;;;;4967610;28;20046;-39
2022/11/09 07:45:30;;;;;;;7.30;1.50;;;11.50;99.90;;;;;;4966793;28;20052;-39
2022/11/09 07:47:57;;;;;;;9.73;1.45;;;11.50;99.90;;;;;;4968914;28;20489;-39
2022/11/09 07:50:24;;;;;;;10.48;1.35;;;11.50;99.90;;;;;;4963087;28;20046;-38
2022/11/09 07:52:49;;;;;;;4.55;0.80;;;11.60;99.90;;;;;;4966571;28;20122;-38
2022/11/09 07:55:16;;;;;;;9.45;1.08;;;11.60;99.90;;;;;;4965869;28;20181;-38
2022/11/09 07:57:43;;;;;;;8.15;1.08;;;11.60;99.90;;;;;;4961990;28;20043;-38
2022/11/09 08:00:11;;;;;;;7.47;1.10;;;11.60;99.90;;;;;;4966586;28;20043;-40
2022/11/09 08:02:36;;;;;;;8.65;1.10;;;11.60;99.90;;;;;;4964308;28;20126;-47
2022/11/09 08:05:02;;;;;;;9.57;1.67;;;11.70;99.90;;;;;;4969534;28;20461;-38
2022/11/09 08:07:28;;;;;;;7.55;1.13;;;11.70;99.90;;;;;;4970268;28;20533;-39
2022/11/09 08:09:54;;;;;;;10.52;1.00;;;11.70;99.90;;;;;;4968017;28;20051;-38
2022/11/09 08:12:20;;;;;;;9.45;1.35;;;11.80;99.90;;;;;;4974165;28;20042;-41
2022/11/09 08:14:45;;;;;;;5.70;1.17;;;11.80;99.90;;;;;;4974350;28;20039;-39
2022/11/09 08:17:12;;;;;;;4.50;0.85;;;11.80;99.90;;;;;;4973578;28;20147;-39
2022/11/09 08:19:37;;;;;;;7.07;1.13;;;11.80;99.90;;;;;;4966566;28;20696;-39
2022/11/09 08:22:03;;;;;;;8.60;1.35;;;11.80;99.90;;;;;;4969017;28;20046;-39
2022/11/09 08:24:29;;;;;;;9.27;1.10;;;11.80;99.90;;;;;;4971283;28;20043;-39
2022/11/09 08:26:54;;;;;;;5.95;1.45;;;11.90;99.90;;;;;;4973406;28;20039;-39
2022/11/09 08:29:20;;;;;;;5.88;1.10;;;11.90;99.90;;;;;;4970984;28;20169;-39
2022/11/09 08:31:49;;;;;;;4.43;0.88;;;12.00;99.90;;;;;;4973084;28;20046;-39
2022/11/09 08:34:15;;;;;;;6.22;1.58;;;12.00;99.90;;;;;;4974650;28;20077;-39
2022/11/09 08:36:41;;;;;;;5.57;1.08;;;12.00;99.90;;;;;;4974411;28;20404;-39
2022/11/09 08:39:07;;;;;;;7.65;1.20;;;12.10;99.90;;;;;;4973963;28;20035;-49
2022/11/09 08:41:33;;;;;;;10.55;1.35;;;12.10;99.90;;;;;;4974799;28;20039;-39
2022/11/09 08:43:59;;;;;;;6.75;1.33;;;12.20;99.90;;;;;;4972148;28;20069;-39
2022/11/09 08:46:25;;;;;;;5.68;1.20;;;12.30;99.90;;;;;;4973771;28;20141;-39
2022/11/09 08:48:50;;;;;;;6.63;1.35;;;12.30;99.90;;;;;;4974359;28;20079;-39
2022/11/09 08:51:16;;;;;;;8.23;1.33;;;12.40;99.90;;;;;;4971824;28;20042;-38
2022/11/09 08:53:42;;;;;;;8.80;1.70;;;12.40;99.90;;;;;;4973950;28;20042;-39
2022/11/09 08:56:08;;;;;;;6.95;1.52;;;12.50;99.90;;;;;;4977457;28;20189;-39
2022/11/09 08:58:34;;;;;;;6.00;1.00;;;12.40;99.90;;;;;;4973037;28;20042;-39
2022/11/09 09:01:00;;;;;;;9.43;1.75;;;12.50;99.90;;;;;;4973307;28;20492;-40
2022/11/09 09:03:26;;;;;;;4.75;1.50;;;12.50;99.90;;;;;;4972126;28;20046;-40
2022/11/09 09:05:51;;;;;;;6.32;1.25;;;12.50;99.90;;;;;;4973216;28;20035;-40
2022/11/09 09:08:20;;;;;;;7.70;1.60;;;12.50;99.90;;;;;;4972472;28;20043;-40
2022/11/09 09:10:46;;;;;;;7.57;1.58;;;12.60;99.90;;;;;;4972265;28;20035;-44
2022/11/09 09:13:12;;;;;;;6.35;1.10;;;12.60;99.90;;;;;;4971657;28;20412;-39
2022/11/09 09:15:38;;;;;;;7.03;1.50;;;12.70;99.90;;;;;;4972434;28;20081;-39
2022/11/09 09:18:04;;;;;;;6.18;1.33;;;12.80;99.90;;;;;;4972820;28;20038;-40
2022/11/09 09:20:30;;;;;;;6.25;1.45;;;12.80;99.90;;;;;;4960664;28;20112;-40
2022/11/09 09:23:00;;;;;;;7.45;1.25;;;12.80;99.90;;;;;;4970900;28;20125;-40
2022/11/09 09:25:26;;;;;;;4.95;1.20;;;12.80;99.90;;;;;;4972060;28;20047;-40
2022/11/09 09:27:52;;;;;;;6.05;1.90;;;12.90;99.90;;;;;;4971736;28;20046;-40
2022/11/09 09:30:18;;;;;;;9.13;1.50;;;12.90;99.90;;;;;;4972401;28;20090;-39
2022/11/09 09:32:43;;;;;;;14.02;1.98;;;13.00;99.90;;;;;;4972648;28;20035;-39
2022/11/09 09:35:10;;;;;;;8.68;1.30;;;13.00;99.90;;;;;;4972597;28;20054;-39
2022/11/09 09:37:35;;;;;;;11.18;1.80;;;13.00;99.90;;;;;;4971698;28;20043;-40
2022/11/09 09:40:01;;;;;;;8.48;1.30;;;13.00;99.90;;;;;;4972049;28;20086;-39
2022/11/09 09:42:32;;;;;;;7.68;1.45;;;13.00;99.90;;;;;;4971246;28;20097;-40
2022/11/09 09:45:12;;;;;;;15.18;1.77;;;13.00;99.90;;;;;;4971428;28;20161;-39
2022/11/09 09:47:49;;;;;;;8.18;1.52;;;13.10;99.90;;;;;;4973306;28;20051;-40
2022/11/09 09:50:31;;;;;;;7.18;1.60;;;13.10;99.90;;;;;;4971843;28;20052;-41
2022/11/09 09:53:21;;;;;;;8.77;1.75;;;13.20;99.90;;;;;;4970566;28;20113;-39
2022/11/09 09:55:54;;;;;;;6.85;1.42;;;13.30;99.90;;;;;;4953054;28;20114;-38
2022/11/09 09:58:25;;;;;;;5.68;1.60;;;13.40;99.90;;;;;;4968397;28;20395;-39
2022/11/09 10:00:55;;;;;;;3.53;1.23;;;13.50;99.90;;;;;;4971130;28;20035;-40
2022/11/09 10:03:21;;;;;;;7.45;1.40;;;13.60;99.90;;;;;;4971466;28;20381;-39
2022/11/09 10:06:23;;;;;;;7.18;1.50;;;13.70;99.90;;;;;;4972330;28;20058;-39
2022/11/09 10:09:05;;;;;;;8.77;1.63;;;13.70;99.90;;;;;;4971023;28;20061;-40
2022/11/09 10:12:10;;;;;;;5.37;1.47;;;13.80;99.90;;;;;;4969512;28;20039;-39
2022/11/09 10:15:04;;;;;;;7.10;1.85;;;13.80;99.90;;;;;;4946961;28;20082;-39
2022/11/09 10:17:30;;;;;;;8.48;1.50;;;13.70;99.90;;;;;;4969949;28;20465;-40
2022/11/09 10:20:47;;;;;;;6.57;1.80;;;13.70;99.90;;;;;;4967030;28;20089;-39
2022/11/09 10:23:53;;;;;;;4.97;1.30;;;13.60;99.90;;;;;;4936181;28;20409;-40
2022/11/09 10:26:39;;;;;;;8.77;1.92;;;13.50;99.90;;;;;;4969062;28;20069;-43
2022/11/09 10:29:22;;;;;;;8.38;1.85;;;13.50;99.90;;;;;;4969248;28;20153;-42
2022/11/09 10:31:52;;;;;;;6.63;2.13;;;13.60;99.90;;;;;;4954749;28;20061;-44
2022/11/09 10:34:30;;;;;;;7.28;1.73;;;13.50;99.90;;;;;;4972334;28;20077;-40
2022/11/09 10:37:12;;;;;;;9.75;1.83;;;13.50;99.90;;;;;;4972599;28;20053;-42
2022/11/09 10:39:50;;;;;;;6.72;1.60;;;13.40;99.90;;;;;;4961272;28;20039;-40
2022/11/09 10:42:15;;;;;;;10.98;2.30;;;13.50;99.90;;;;;;4972477;28;20097;-42
2022/11/09 10:44:41;;;;;;;7.80;1.42;;;13.60;99.90;;;;;;4969193;28;20035;-41
2022/11/09 10:47:13;;;;;;;7.18;2.10;;;13.80;99.90;;;;;;4972222;28;20043;-41
2022/11/09 10:49:39;;;;;;;8.10;1.52;;;14.00;99.90;;;;;;4972149;28;20039;-43
2022/11/09 10:52:38;;;;;;;6.57;1.60;;;14.00;99.90;;;;;;4954799;28;20053;-42
2022/11/09 10:55:25;;;;;;;8.05;1.42;;;13.90;99.90;;;;;;4953137;28;20042;-41
2022/11/09 10:57:58;;;;;;;6.72;2.00;;;13.80;99.90;;;;;;4971020;28;20034;-41
2022/11/09 11:00:24;;;;;;;6.45;1.60;;;13.60;99.90;;;;;;4968718;28;20121;-40
2022/11/09 11:02:51;;;;;;;6.25;1.40;;;13.50;99.90;;;;;;4971247;28;20078;-39
2022/11/09 11:05:17;;;;;;;6.75;1.67;;;13.50;99.90;;;;;;4970980;28;20050;-43
2022/11/09 11:07:44;;;;;;;11.35;1.50;;;13.50;99.90;;;;;;4972023;28;20065;-45
2022/11/09 11:10:10;;;;;;;8.43;1.30;;;13.50;99.90;;;;;;4971839;28;20547;-43
2022/11/09 11:12:36;;;;;;;6.25;1.45;;;13.50;99.90;;;;;;4971875;28;20133;-40
2022/11/09 11:15:02;;;;;;;11.55;1.40;;;13.40;99.90;;;;;;4971426;28;20082;-39
2022/11/09 11:17:35;;;;;;;6.28;1.30;;;13.40;99.90;;;;;;4971958;28;20035;-41
2022/11/09 11:20:23;;;;;;;13.15;1.70;;;13.40;99.90;;;;;;4960002;28;20046;-41
2022/11/09 11:22:49;;;;;;;4.22;1.00;;;13.30;99.90;;;;;;4965838;28;20181;-42
2022/11/09 11:25:23;;;;;;;8.80;1.30;;;13.20;99.90;;;;;;4971225;28;20133;-44
2022/11/09 11:27:58;;;;;;;10.40;1.83;;;13.20;99.90;;;;;;4968948;28;20105;-42
2022/11/09 11:30:28;;;;;;;6.80;1.35;;;13.20;99.90;;;;;;4959335;28;20039;-43
2022/11/09 11:32:55;;;;;;;8.68;1.30;;;13.20;99.90;;;;;;4962815;28;20097;-39
2022/11/09 11:35:35;;;;;;;5.03;0.82;;;13.20;99.90;;;;;;4962442;28;20043;-43
2022/11/09 11:38:18;;;;;;;5.95;1.30;;;13.30;99.90;;;;;;4968489;28;20054;-39
2022/11/09 11:41:07;;;;;;;5.95;1.30;;;13.40;99.90;;;;;;4968171;28;20097;-42
2022/11/09 11:43:48;;;;;;;8.85;1.38;;;13.50;99.90;;;;;;4958537;28;20058;-41
2022/11/09 11:46:46;;;;;;;6.72;1.35;;;13.50;99.90;;;;;;4969291;28;20157;-44
2022/11/09 11:49:29;;;;;;;9.10;1.33;;;13.60;99.90;;;;;;4967423;28;20039;-42
2022/11/09 11:52:36;;;;;;;6.40;1.48;;;13.70;99.90;;;;;;4968277;28;20054;-42
2022/11/09 11:55:44;;;;;;;6.82;1.08;;;13.70;99.90;;;;;;4969391;28;20055;-43
2022/11/09 11:58:33;;;;;;;5.75;1.08;;;13.70;99.90;;;;;;4966943;28;20047;-42
2022/11/09 12:01:13;;;;;;;3.42;1.20;;;13.70;99.90;;;;;;4968665;28;20050;-43
2022/11/09 12:04:06;;;;;;;6.68;1.58;;;13.70;99.90;;;;;;4974212;28;20166;-43
2022/11/09 12:07:06;;;;;;;4.82;1.58;;;13.70;99.90;;;;;;4964328;28;20138;-42
2022/11/09 12:09:51;;;;;;;5.07;1.25;;;13.80;99.90;;;;;;4956406;28;20046;-41
2022/11/09 12:12:36;;;;;;;5.80;1.10;;;14.00;99.90;;;;;;4969183;28;20047;-42
2022/11/09 12:15:25;;;;;;;4.38;1.00;;;14.30;99.90;;;;;;4966932;28;20043;-42
2022/11/09 12:17:53;;;;;;;4.22;1.23;;;14.50;99.90;;;;;;4958230;28;20043;-40
2022/11/09 12:20:25;;;;;;;4.63;1.20;;;14.50;99.90;;;;;;4970485;28;20140;-44
2022/11/09 12:22:56;;;;;;;7.22;1.00;;;14.40;99.60;;;;;;4970055;28;20047;-42
2022/11/09 12:25:42;;;;;;;10.05;1.63;;;14.30;99.40;;;;;;4968045;28;20511;-41
2022/11/09 12:28:26;;;;;;;3.63;0.90;;;14.20;99.90;;;;;;4961761;28;20046;-42
2022/11/09 12:31:05;;;;;;;6.10;0.80;;;14.00;99.40;;;;;;4958912;28;20086;-40
2022/11/09 12:33:46;;;;;;;5.82;1.25;;;14.00;99.10;;;;;;4967333;28;20039;-42
2022/11/09 12:36:21;;;;;;;5.22;0.90;;;13.90;98.80;;;;;;4972617;28;20497;-43
2022/11/09 12:39:03;;;;;;;4.75;1.27;;;13.80;99.70;;;;;;4968083;28;20047;-45
2022/11/09 12:41:34;;;;;;;4.83;0.90;;;13.80;99.50;;;;;;4972699;28;20400;-49
2022/11/09 12:44:13;;;;;;;7.43;1.30;;;13.80;99.00;;;;;;4970522;28;20055;-43
2022/11/09 12:46:48;;;;;;;5.70;1.30;;;13.70;98.70;;;;;;4952232;28;20069;-43
2022/11/09 12:49:31;;;;;;;3.58;0.90;;;13.70;99.30;;;;;;4972451;28;20055;-43
2022/11/09 12:51:57;;;;;;;5.65;1.35;;;13.70;98.90;;;;;;4961908;28;20125;-46
2022/11/09 12:54:24;;;;;;;5.15;0.93;;;13.70;99.00;;;;;;4971652;28;20126;-42
2022/11/09 12:57:03;;;;;;;4.63;0.75;;;13.70;98.80;;;;;;4969972;28;20555;-41
2022/11/09 12:59:29;;;;;;;5.15;0.93;;;13.80;97.90;;;;;;4961450;28;20043;-41
2022/11/09 13:01:57;;;;;;;4.00;0.57;;;13.80;98.20;;;;;;4973416;28;20515;-41